ENKR/KKN METAR and TAF weather

Enter ICAO airport designator
Station Type Date Time Source
ENKR METAR 2019/06/20 07:20 UTC NOAA

ENKR 200720Z 32008KT 280V340 9999 SCT031 BKN100 09/01 Q1012 RMK WIND 731FT 28011KT


Station Type Date Time Source
ENKR Decoded METAR 2019/06/20 07:20 UTC NOAA

Kirkenes Lufthavn, Norway (ENKR) 69-44N 029-54E 91M
Jun 20, 2019 - 03:20 AM EDT / 2019.06.20 0720 UTC
Wind: from the NW (320 degrees) at 9 MPH (8 KT) (direction variable):0
Visibility: greater than 7 mile(s):0
Sky conditions: mostly cloudy
Temperature: 48 F (9 C)
Dew Point: 33 F (1 C)
Relative Humidity: 57%
Pressure (altimeter): 29.88 in. Hg (1012 hPa)
ob: ENKR 200720Z 32008KT 280V340 9999 SCT031 BKN100 09/01 Q1012 RMK WIND 731FT 28011KT
cycle: 7

Station Type Date Time Source
ENKR TAF 2017/08/31 21:36 UTC NOAA

TAF TAF ENKR 312300Z 3121/0109 29005KT 9999 FEW020 SCT040

Example: see airport list